Time;durP1;ratioP1;P1;durP2;ratioP2;P2;SDS_P1;SDS_P2;PMS_P1;PMS_P2;Temp;Humidity;BMP_temperature;BMP_pressure;BME280_temperature;BME280_humidity;BME280_pressure;Samples;Min_cycle;Max_cycle;Signal;HPM_P1;HPM_P2
2021/05/20 00:02:13;;;;;;;2.60;1.63;;;8.60;99.90;;;;;;5012719;28;20022;-73
2021/05/20 00:04:39;;;;;;;2.50;1.80;;;8.50;99.90;;;;;;5029602;28;20065;-74
2021/05/20 00:07:05;;;;;;;4.47;1.77;;;8.50;99.90;;;;;;5012699;28;20029;-73
2021/05/20 00:09:31;;;;;;;3.45;1.83;;;8.50;99.90;;;;;;5030235;28;20040;-73
2021/05/20 00:11:57;;;;;;;3.63;1.90;;;8.50;99.90;;;;;;5030570;28;20051;-73
2021/05/20 00:14:23;;;;;;;4.57;1.80;;;8.50;99.90;;;;;;5030151;28;20082;-74
2021/05/20 00:16:49;;;;;;;2.30;1.40;;;8.50;99.90;;;;;;5030217;28;20148;-74
2021/05/20 00:19:14;;;;;;;5.28;1.85;;;8.50;99.90;;;;;;5030047;28;20100;-73
2021/05/20 00:21:40;;;;;;;2.90;1.85;;;8.40;99.90;;;;;;5030376;28;20029;-73
2021/05/20 00:24:06;;;;;;;2.60;1.88;;;8.50;99.90;;;;;;5030096;28;20030;-73
2021/05/20 00:26:32;;;;;;;5.00;1.90;;;8.50;99.90;;;;;;5030355;28;20022;-73
2021/05/20 00:28:59;;;;;;;4.18;2.15;;;8.50;99.90;;;;;;5029911;28;20032;-73
2021/05/20 00:31:24;;;;;;;3.53;1.95;;;8.50;99.90;;;;;;5029897;28;20411;-73
2021/05/20 00:33:50;;;;;;;3.50;2.00;;;8.60;99.90;;;;;;5029843;28;20157;-74
2021/05/20 00:36:15;;;;;;;4.78;1.80;;;8.60;99.90;;;;;;5029732;28;20033;-74
2021/05/20 00:38:41;;;;;;;5.07;2.33;;;8.70;99.90;;;;;;5029929;28;20104;-73
2021/05/20 00:41:06;;;;;;;2.60;2.00;;;8.70;99.90;;;;;;5029678;28;20044;-74
2021/05/20 00:43:32;;;;;;;4.60;1.90;;;8.70;99.90;;;;;;5029741;28;20026;-73
2021/05/20 00:45:58;;;;;;;3.13;1.85;;;8.60;99.90;;;;;;5029655;28;20040;-74
2021/05/20 00:48:23;;;;;;;4.60;1.85;;;8.60;99.90;;;;;;5011899;28;20130;-73
2021/05/20 00:50:49;;;;;;;5.22;2.55;;;8.60;99.90;;;;;;5029554;28;20104;-74
2021/05/20 00:53:15;;;;;;;6.03;2.00;;;8.60;99.90;;;;;;5029605;28;20482;-73
2021/05/20 00:55:42;;;;;;;3.60;2.42;;;8.60;99.90;;;;;;5011704;28;20108;-73
2021/05/20 00:58:09;;;;;;;3.50;1.65;;;8.50;99.90;;;;;;5029685;28;20083;-73
2021/05/20 01:00:36;;;;;;;3.15;1.83;;;8.60;99.90;;;;;;5029443;28;20341;-74
2021/05/20 01:03:02;;;;;;;4.40;1.70;;;8.60;99.90;;;;;;5012342;28;20025;-74
2021/05/20 01:05:28;;;;;;;2.30;1.20;;;8.50;99.90;;;;;;5012553;28;20025;-75
2021/05/20 01:07:54;;;;;;;3.97;1.58;;;8.50;99.90;;;;;;5031092;28;20128;-77
2021/05/20 01:10:20;;;;;;;1.40;1.10;;;8.40;99.90;;;;;;5012057;28;20132;-76
2021/05/20 01:12:46;;;;;;;1.10;1.00;;;8.40;99.90;;;;;;5012176;28;20116;-76
2021/05/20 01:15:22;;;;;;;2.88;1.20;;;8.40;99.90;;;;;;5011613;28;20025;-76
2021/05/20 01:17:56;;;;;;;3.15;1.50;;;8.30;99.90;;;;;;5029426;28;20017;-76
2021/05/20 01:20:30;;;;;;;2.83;1.35;;;8.30;99.90;;;;;;5029299;28;20532;-75
2021/05/20 01:23:14;;;;;;;1.23;0.90;;;8.30;99.90;;;;;;5029306;28;20029;-75
2021/05/20 01:25:42;;;;;;;1.25;1.10;;;8.20;99.90;;;;;;5029242;28;20394;-75
2021/05/20 01:28:10;;;;;;;1.13;1.00;;;8.20;99.90;;;;;;5029330;28;20127;-75
2021/05/20 01:30:37;;;;;;;1.40;1.00;;;8.20;99.90;;;;;;5011424;28;20089;-75
2021/05/20 01:33:03;;;;;;;1.00;0.90;;;8.20;99.90;;;;;;5029254;28;20029;-75
2021/05/20 01:35:29;;;;;;;2.25;1.10;;;8.20;99.90;;;;;;5028979;28;20557;-76
2021/05/20 01:40:57;;;;;;;3.55;1.60;;;8.20;99.90;;;;;;5029576;28;20026;-76
2021/05/20 01:43:23;;;;;;;2.53;1.50;;;8.20;99.90;;;;;;5011372;28;20045;-75
2021/05/20 01:45:59;;;;;;;2.67;1.85;;;8.20;99.90;;;;;;5011361;28;20025;-75
2021/05/20 01:48:44;;;;;;;3.03;2.05;;;8.20;99.90;;;;;;5011276;28;20155;-75
2021/05/20 01:51:17;;;;;;;2.95;2.10;;;8.10;99.90;;;;;;5028986;28;20099;-75
2021/05/20 01:53:46;;;;;;;3.40;2.30;;;8.10;99.90;;;;;;5011382;28;20072;-75
2021/05/20 01:56:15;;;;;;;4.90;2.42;;;8.10;99.90;;;;;;5028989;28;20029;-75
2021/05/20 01:58:41;;;;;;;5.50;2.83;;;8.10;99.90;;;;;;5028909;28;20479;-76
2021/05/20 02:01:07;;;;;;;4.00;2.83;;;8.10;99.90;;;;;;5011190;28;20033;-76
2021/05/20 02:03:33;;;;;;;4.20;2.75;;;8.10;99.90;;;;;;5011314;28;20025;-77
2021/05/20 02:06:02;;;;;;;4.88;2.88;;;8.10;99.90;;;;;;5028983;28;20104;-75
2021/05/20 02:08:29;;;;;;;4.93;2.97;;;8.10;99.90;;;;;;5028928;28;20032;-75
2021/05/20 02:10:55;;;;;;;3.97;2.60;;;8.10;99.90;;;;;;5028662;28;20092;-75
2021/05/20 02:13:21;;;;;;;4.35;2.78;;;8.10;99.90;;;;;;5028922;28;20435;-75
2021/05/20 02:15:47;;;;;;;3.67;3.20;;;8.10;99.90;;;;;;5011045;28;20064;-75
2021/05/20 02:18:13;;;;;;;5.97;3.70;;;8.10;99.90;;;;;;5011959;28;20021;-75
2021/05/20 02:20:38;;;;;;;4.80;3.63;;;8.10;99.90;;;;;;5010999;28;20109;-75
2021/05/20 02:23:04;;;;;;;8.27;4.03;;;8.10;99.90;;;;;;5011095;28;20587;-75
2021/05/20 02:25:30;;;;;;;5.43;4.43;;;8.10;99.90;;;;;;5028765;28;20041;-75
2021/05/20 02:27:56;;;;;;;6.75;4.88;;;8.10;99.90;;;;;;5029894;28;20029;-75
2021/05/20 02:30:22;;;;;;;7.45;5.07;;;8.10;99.90;;;;;;5032179;28;20026;-75
2021/05/20 02:32:48;;;;;;;8.68;5.47;;;8.00;99.90;;;;;;5032187;28;20033;-75
2021/05/20 02:35:14;;;;;;;8.15;6.43;;;8.00;99.90;;;;;;5032105;28;20025;-75
2021/05/20 02:37:40;;;;;;;9.05;5.90;;;8.00;99.90;;;;;;5014314;28;20105;-75
2021/05/20 02:40:08;;;;;;;7.93;5.88;;;8.00;99.90;;;;;;5031997;28;20018;-75
2021/05/20 02:42:34;;;;;;;9.13;7.00;;;8.00;99.90;;;;;;5032075;28;20056;-75
2021/05/20 02:45:00;;;;;;;10.82;6.60;;;8.00;99.90;;;;;;5031995;28;20021;-75
2021/05/20 02:47:26;;;;;;;9.73;7.05;;;8.00;99.90;;;;;;5032234;28;20032;-75
2021/05/20 02:49:51;;;;;;;11.13;6.75;;;8.00;99.90;;;;;;5031815;28;20175;-75
2021/05/20 02:52:17;;;;;;;11.25;7.25;;;8.00;99.90;;;;;;5014209;28;20021;-75
2021/05/20 02:54:42;;;;;;;9.43;6.25;;;8.00;99.90;;;;;;5014051;28;20025;-75
2021/05/20 02:57:08;;;;;;;10.38;7.63;;;8.00;99.90;;;;;;5014121;28;20025;-75
2021/05/20 02:59:35;;;;;;;11.68;6.85;;;8.00;99.90;;;;;;5031723;28;20083;-75
2021/05/20 03:02:04;;;;;;;9.27;7.30;;;8.00;99.90;;;;;;5031684;28;20026;-75
2021/05/20 03:04:34;;;;;;;10.40;7.03;;;8.00;99.90;;;;;;5013845;28;20022;-75
2021/05/20 03:07:02;;;;;;;12.73;6.97;;;8.00;99.90;;;;;;5014317;28;20045;-75
2021/05/20 03:09:28;;;;;;;9.32;6.20;;;7.90;99.90;;;;;;5031357;28;20105;-75
2021/05/20 03:11:56;;;;;;;9.40;6.40;;;7.90;99.90;;;;;;5031462;28;20050;-75
2021/05/20 03:14:22;;;;;;;8.63;5.93;;;7.90;99.90;;;;;;5031324;28;20036;-75
2021/05/20 03:16:48;;;;;;;7.65;5.53;;;7.90;99.90;;;;;;5013700;28;20423;-75
2021/05/20 03:19:13;;;;;;;8.50;5.90;;;7.90;99.90;;;;;;5031319;28;20467;-75
2021/05/20 03:21:39;;;;;;;7.10;5.32;;;7.90;99.90;;;;;;5031399;28;20044;-76
2021/05/20 03:24:05;;;;;;;8.80;5.68;;;7.80;99.90;;;;;;5013545;28;20041;-75
2021/05/20 03:26:31;;;;;;;9.20;6.18;;;7.90;99.90;;;;;;5031216;28;20029;-75
2021/05/20 03:28:56;;;;;;;8.57;6.07;;;7.90;99.90;;;;;;5031166;28;20037;-75
2021/05/20 03:31:22;;;;;;;8.48;6.15;;;7.80;99.90;;;;;;5013455;28;20034;-75
2021/05/20 03:33:48;;;;;;;8.05;6.13;;;7.80;99.90;;;;;;5031181;28;20061;-75
2021/05/20 03:36:13;;;;;;;8.02;5.97;;;7.80;99.90;;;;;;5030981;28;20072;-75
2021/05/20 03:38:39;;;;;;;10.48;5.93;;;7.80;99.90;;;;;;5031007;28;20119;-75
2021/05/20 03:41:04;;;;;;;8.10;6.15;;;7.80;99.90;;;;;;5013137;28;20033;-75
2021/05/20 03:43:31;;;;;;;10.55;6.38;;;7.80;99.90;;;;;;5031197;28;20018;-75
2021/05/20 03:45:57;;;;;;;10.90;6.30;;;7.70;99.90;;;;;;5013195;28;20044;-75
2021/05/20 03:48:22;;;;;;;8.40;6.22;;;7.60;99.90;;;;;;5013179;28;20038;-75
2021/05/20 03:50:48;;;;;;;8.68;6.00;;;7.60;99.90;;;;;;5030780;28;20026;-74
2021/05/20 03:53:13;;;;;;;9.73;6.43;;;7.50;99.90;;;;;;5012997;28;20116;-75
2021/05/20 03:55:39;;;;;;;10.77;7.10;;;7.40;99.90;;;;;;5013060;28;20150;-75
2021/05/20 03:58:04;;;;;;;10.70;7.10;;;7.40;99.90;;;;;;5012949;28;20037;-75
2021/05/20 04:00:30;;;;;;;11.18;6.82;;;7.30;99.90;;;;;;5030563;28;20421;-75
2021/05/20 04:02:55;;;;;;;9.95;6.90;;;7.30;99.90;;;;;;5012930;28;20021;-75
2021/05/20 04:05:21;;;;;;;10.93;6.47;;;7.30;99.90;;;;;;5030584;28;20036;-75
2021/05/20 04:07:47;;;;;;;9.25;5.93;;;7.30;99.90;;;;;;5030513;28;20075;-75
2021/05/20 04:10:13;;;;;;;8.25;6.05;;;7.20;99.90;;;;;;5038251;23;20421;-75
2021/05/20 04:12:38;;;;;;;9.63;6.22;;;7.20;99.90;;;;;;5031581;28;20025;-75
2021/05/20 04:15:05;;;;;;;10.02;5.85;;;7.20;99.90;;;;;;5030970;28;20478;-75
2021/05/20 04:17:30;;;;;;;9.95;5.72;;;7.30;99.90;;;;;;5030716;28;20039;-76
2021/05/20 04:19:56;;;;;;;9.30;5.70;;;7.40;99.90;;;;;;5012487;28;20109;-75
2021/05/20 04:22:21;;;;;;;10.23;6.20;;;7.50;99.90;;;;;;5030227;28;20061;-75
2021/05/20 04:24:47;;;;;;;7.47;5.22;;;7.60;99.90;;;;;;5012363;28;20025;-75
2021/05/20 04:27:13;;;;;;;7.47;5.07;;;7.70;99.90;;;;;;5030121;28;20025;-75
2021/05/20 04:29:38;;;;;;;7.40;5.15;;;7.80;99.90;;;;;;5012238;28;20395;-75
2021/05/20 04:32:04;;;;;;;7.10;4.97;;;7.80;99.90;;;;;;5012210;28;20398;-75
2021/05/20 04:34:30;;;;;;;8.07;4.88;;;7.90;99.90;;;;;;5012210;28;20034;-75
2021/05/20 04:36:55;;;;;;;7.72;5.05;;;8.00;99.90;;;;;;5030011;28;20056;-75
2021/05/20 04:39:21;;;;;;;8.02;4.15;;;8.10;99.90;;;;;;5012321;28;20368;-76
2021/05/20 04:41:46;;;;;;;5.07;3.70;;;8.20;99.90;;;;;;5012226;28;20108;-75
2021/05/20 04:44:12;;;;;;;6.97;3.90;;;8.30;99.90;;;;;;5011991;28;20483;-75
2021/05/20 04:46:38;;;;;;;6.82;4.63;;;8.30;99.90;;;;;;5029688;28;20036;-75
2021/05/20 04:49:11;;;;;;;5.57;3.83;;;8.40;99.90;;;;;;5029479;28;20551;-75
2021/05/20 04:51:38;;;;;;;5.05;3.83;;;8.50;99.90;;;;;;5029154;28;20052;-75
2021/05/20 04:54:05;;;;;;;4.78;3.22;;;8.50;99.90;;;;;;5011918;28;20040;-75
2021/05/20 04:56:31;;;;;;;5.32;3.08;;;8.60;99.90;;;;;;5029750;28;20033;-75
2021/05/20 04:58:56;;;;;;;4.68;2.83;;;8.70;99.90;;;;;;5011988;28;20017;-76
2021/05/20 05:01:22;;;;;;;8.02;2.90;;;8.80;99.90;;;;;;5029307;28;20029;-75
2021/05/20 05:03:48;;;;;;;4.05;2.67;;;8.80;99.90;;;;;;5029382;28;20029;-75
2021/05/20 05:06:13;;;;;;;3.67;2.28;;;8.90;99.90;;;;;;5030282;28;20033;-76
2021/05/20 05:08:39;;;;;;;5.82;3.22;;;9.00;99.90;;;;;;5011738;28;20037;-74
2021/05/20 05:11:05;;;;;;;4.28;2.45;;;9.00;99.90;;;;;;5029269;28;20132;-75
2021/05/20 05:13:30;;;;;;;7.28;3.60;;;9.10;99.90;;;;;;5029438;28;20403;-76
2021/05/20 05:15:56;;;;;;;3.92;2.55;;;9.20;99.90;;;;;;5029237;28;20486;-75
2021/05/20 05:18:22;;;;;;;4.93;2.88;;;9.40;99.90;;;;;;5029229;28;20022;-75
2021/05/20 05:20:47;;;;;;;3.80;2.60;;;9.60;99.90;;;;;;5029370;28;20025;-75
2021/05/20 05:23:13;;;;;;;4.80;2.90;;;9.80;99.90;;;;;;5011579;28;20013;-75
2021/05/20 05:25:38;;;;;;;4.07;1.90;;;9.80;99.90;;;;;;5011600;28;20036;-75
2021/05/20 05:28:05;;;;;;;4.40;2.50;;;9.90;99.90;;;;;;5029892;28;20475;-76
2021/05/20 05:30:31;;;;;;;4.20;2.40;;;10.10;99.90;;;;;;5011463;28;20033;-75
2021/05/20 05:32:56;;;;;;;4.43;2.13;;;10.10;99.90;;;;;;5029202;28;20398;-75
2021/05/20 05:35:22;;;;;;;3.45;2.20;;;10.10;99.90;;;;;;5029288;28;20398;-76
2021/05/20 05:37:47;;;;;;;3.50;2.50;;;10.30;99.90;;;;;;5013303;28;20017;-76
2021/05/20 05:40:13;;;;;;;4.78;2.38;;;10.20;99.90;;;;;;5031136;28;20021;-76
2021/05/20 05:42:39;;;;;;;4.13;2.70;;;10.30;99.90;;;;;;5013021;28;20490;-76
2021/05/20 05:45:06;;;;;;;5.72;2.40;;;10.30;99.90;;;;;;5013049;28;20029;-76
2021/05/20 05:47:32;;;;;;;4.32;2.42;;;10.40;99.90;;;;;;5011725;28;20029;-75
2021/05/20 05:50:03;;;;;;;5.70;2.28;;;10.40;99.90;;;;;;5011211;28;20084;-75
2021/05/20 05:52:29;;;;;;;4.35;2.75;;;10.70;99.90;;;;;;5011400;28;20447;-75
2021/05/20 05:54:54;;;;;;;3.67;2.05;;;10.80;99.90;;;;;;5029084;28;20029;-75
2021/05/20 05:57:20;;;;;;;3.45;1.98;;;10.90;99.90;;;;;;5029054;28;20053;-75
2021/05/20 05:59:48;;;;;;;4.70;1.90;;;11.00;99.90;;;;;;5011200;28;20475;-75
2021/05/20 06:02:16;;;;;;;4.93;2.03;;;11.10;99.90;;;;;;5011527;28;20021;-76
2021/05/20 06:04:41;;;;;;;3.42;1.80;;;11.20;99.90;;;;;;5032883;28;20025;-75
2021/05/20 06:07:07;;;;;;;2.08;1.60;;;11.20;99.90;;;;;;5032841;28;20013;-75
2021/05/20 06:09:32;;;;;;;6.15;2.03;;;11.20;99.90;;;;;;5014755;28;20021;-75
2021/05/20 06:11:58;;;;;;;3.33;1.75;;;11.20;99.90;;;;;;5014934;28;20514;-76
2021/05/20 06:14:24;;;;;;;6.25;1.88;;;11.10;99.90;;;;;;5014971;28;20040;-75
2021/05/20 06:16:49;;;;;;;2.97;1.73;;;11.20;99.90;;;;;;5032714;28;20040;-75
2021/05/20 06:19:15;;;;;;;3.58;1.60;;;11.30;99.90;;;;;;5032580;28;20025;-75
2021/05/20 06:21:41;;;;;;;1.83;1.42;;;11.50;99.90;;;;;;5014762;28;20064;-75
2021/05/20 06:24:07;;;;;;;2.50;1.50;;;11.70;99.90;;;;;;5032611;28;20025;-76
2021/05/20 06:26:32;;;;;;;2.35;1.35;;;11.60;99.90;;;;;;5033481;28;20032;-76
2021/05/20 06:28:58;;;;;;;2.58;1.20;;;11.60;99.90;;;;;;5032765;28;20553;-76
2021/05/20 06:31:24;;;;;;;3.47;1.60;;;11.60;99.90;;;;;;5032547;28;20044;-75
2021/05/20 06:33:50;;;;;;;2.95;1.05;;;11.70;99.90;;;;;;5032466;28;20026;-75
2021/05/20 06:36:16;;;;;;;1.27;1.17;;;11.80;99.90;;;;;;5014779;28;20021;-75
2021/05/20 06:38:42;;;;;;;3.45;1.23;;;12.00;99.90;;;;;;5032232;28;20025;-75
2021/05/20 06:41:09;;;;;;;2.60;1.38;;;12.00;99.90;;;;;;5014492;28;20529;-76
2021/05/20 06:43:37;;;;;;;4.80;1.25;;;12.10;99.90;;;;;;5032974;28;20071;-75
2021/05/20 06:46:06;;;;;;;2.33;1.50;;;12.00;99.90;;;;;;5032444;28;20083;-74
2021/05/20 06:48:32;;;;;;;1.77;1.10;;;11.80;99.90;;;;;;5014573;28;20025;-76
2021/05/20 06:50:57;;;;;;;3.40;1.50;;;11.90;99.90;;;;;;5032128;28;20036;-76
2021/05/20 06:53:25;;;;;;;2.53;1.52;;;12.10;99.90;;;;;;5032021;28;20100;-75
2021/05/20 06:55:54;;;;;;;2.75;1.40;;;12.30;99.90;;;;;;5031934;28;20025;-76
2021/05/20 07:01:04;;;;;;;1.98;1.30;;;12.40;99.90;;;;;;5032312;28;20028;-75
2021/05/20 07:03:29;;;;;;;2.88;1.58;;;12.30;99.90;;;;;;5014130;28;20026;-73
2021/05/20 07:05:55;;;;;;;1.58;1.20;;;12.30;99.90;;;;;;5032146;28;20079;-74
2021/05/20 07:08:21;;;;;;;2.25;1.60;;;12.20;99.90;;;;;;5031765;28;20028;-75
2021/05/20 07:10:47;;;;;;;2.95;1.40;;;12.10;99.90;;;;;;5013649;28;20586;-76
2021/05/20 07:13:12;;;;;;;1.90;1.17;;;11.90;99.90;;;;;;5014462;28;20120;-74
2021/05/20 07:15:38;;;;;;;5.05;1.58;;;11.80;99.90;;;;;;5013852;28;20490;-74
2021/05/20 07:18:04;;;;;;;3.38;1.63;;;11.80;99.90;;;;;;5013945;28;20021;-74
2021/05/20 07:20:29;;;;;;;2.28;1.48;;;11.90;99.90;;;;;;5031702;28;20025;-75
2021/05/20 07:22:55;;;;;;;2.90;1.70;;;12.00;99.90;;;;;;5014099;28;20547;-75
2021/05/20 07:25:20;;;;;;;2.58;1.70;;;12.10;99.90;;;;;;5031306;28;20053;-74
2021/05/20 07:27:46;;;;;;;4.47;1.77;;;12.30;99.90;;;;;;5013678;28;20084;-75
2021/05/20 07:30:12;;;;;;;2.10;1.42;;;12.50;99.90;;;;;;5013469;28;20037;-75
2021/05/20 07:32:37;;;;;;;4.38;1.83;;;12.70;99.90;;;;;;5013389;28;20032;-74
2021/05/20 07:35:06;;;;;;;3.00;1.52;;;13.00;99.90;;;;;;5013428;28;20026;-74
2021/05/20 07:37:31;;;;;;;1.40;1.27;;;13.00;99.90;;;;;;5031087;28;20441;-75
2021/05/20 07:39:57;;;;;;;3.05;1.65;;;13.10;99.90;;;;;;5031017;28;20021;-74
2021/05/20 07:42:22;;;;;;;2.22;1.40;;;13.00;99.90;;;;;;5031218;28;20033;-75
2021/05/20 07:44:53;;;;;;;2.50;1.40;;;13.00;99.90;;;;;;5013288;28;20111;-74
2021/05/20 07:47:18;;;;;;;4.43;1.52;;;13.00;99.90;;;;;;5013441;28;20021;-75
2021/05/20 07:49:44;;;;;;;2.28;1.83;;;13.10;99.90;;;;;;5031418;28;20028;-77
2021/05/20 07:52:09;;;;;;;3.63;1.48;;;13.20;99.90;;;;;;5031100;28;20025;-76
2021/05/20 07:54:35;;;;;;;2.88;1.55;;;13.40;99.90;;;;;;5031125;28;20022;-75
2021/05/20 07:57:01;;;;;;;2.40;1.70;;;13.70;99.90;;;;;;5013260;28;20033;-75
2021/05/20 07:59:27;;;;;;;3.50;1.55;;;13.80;99.90;;;;;;5013368;28;20138;-74
2021/05/20 08:04:42;;;;;;;5.60;1.90;;;13.60;99.90;;;;;;5002481;28;20048;-74
2021/05/20 08:07:23;;;;;;;2.88;1.67;;;13.40;99.90;;;;;;5013009;28;20076;-74
2021/05/20 08:12:30;;;;;;;3.22;1.60;;;13.30;99.90;;;;;;5030664;28;20116;-74
2021/05/20 08:14:55;;;;;;;2.53;1.52;;;13.40;99.90;;;;;;5012546;28;20108;-74
2021/05/20 08:17:21;;;;;;;2.28;1.52;;;13.40;99.90;;;;;;5012572;28;20025;-74
2021/05/20 08:19:46;;;;;;;5.00;1.90;;;13.40;99.90;;;;;;5030443;28;20525;-74
2021/05/20 08:22:12;;;;;;;4.55;1.75;;;13.60;99.90;;;;;;5012585;28;20083;-74
2021/05/20 08:24:37;;;;;;;3.50;1.70;;;14.10;99.90;;;;;;5030093;28;20056;-74
2021/05/20 08:27:03;;;;;;;1.98;1.70;;;14.60;99.90;;;;;;5029748;28;20391;-75
2021/05/20 08:29:30;;;;;;;2.55;1.60;;;14.80;99.90;;;;;;5012506;28;20108;-74
2021/05/20 08:31:56;;;;;;;5.15;1.95;;;15.20;99.90;;;;;;5030301;28;20018;-75
2021/05/20 08:34:21;;;;;;;2.75;1.77;;;15.70;99.90;;;;;;5012676;28;20426;-76
2021/05/20 08:36:47;;;;;;;3.53;2.05;;;16.50;99.90;;;;;;5012336;28;20037;-73
2021/05/20 08:39:13;;;;;;;4.88;1.40;;;16.90;99.90;;;;;;5030190;28;20022;-75
2021/05/20 08:41:38;;;;;;;3.38;1.08;;;17.20;99.90;;;;;;5012151;28;20076;-75
2021/05/20 08:44:12;;;;;;;2.53;1.50;;;17.30;99.90;;;;;;5029910;28;20024;-75
2021/05/20 08:46:38;;;;;;;3.22;1.60;;;17.40;98.70;;;;;;5012215;28;20510;-75
2021/05/20 08:49:14;;;;;;;2.00;1.48;;;17.60;96.00;;;;;;5012178;28;20037;-75
2021/05/20 08:51:43;;;;;;;1.90;1.40;;;17.80;97.90;;;;;;5011982;28;20021;-75
2021/05/20 08:54:09;;;;;;;1.92;1.10;;;17.90;95.60;;;;;;5012096;28;20529;-75
2021/05/20 08:56:34;;;;;;;3.42;1.38;;;17.60;94.10;;;;;;5029670;28;20065;-75
2021/05/20 08:59:00;;;;;;;2.65;1.25;;;17.50;93.60;;;;;;5011899;28;20060;-76
2021/05/20 09:01:43;;;;;;;3.17;1.02;;;17.40;93.60;;;;;;5029843;28;20364;-76
2021/05/20 09:04:09;;;;;;;2.63;1.25;;;17.40;93.70;;;;;;5011974;28;20017;-74
2021/05/20 09:06:46;;;;;;;3.85;1.58;;;17.30;92.70;;;;;;5029725;28;20083;-75
2021/05/20 09:09:19;;;;;;;2.17;1.27;;;17.30;94.20;;;;;;5029905;28;20144;-75
2021/05/20 09:11:57;;;;;;;2.20;1.33;;;17.40;95.50;;;;;;5029554;28;20029;-76
2021/05/20 09:14:34;;;;;;;2.08;1.10;;;17.40;93.00;;;;;;5029880;28;20073;-75
2021/05/20 09:17:17;;;;;;;3.08;1.48;;;17.50;91.80;;;;;;5012208;28;20053;-75
2021/05/20 09:19:51;;;;;;;3.65;1.35;;;17.70;91.00;;;;;;5029726;28;20020;-75
2021/05/20 09:22:16;;;;;;;2.92;1.08;;;18.20;88.10;;;;;;5029604;28;20026;-74
2021/05/20 09:24:46;;;;;;;1.77;0.90;;;18.90;83.80;;;;;;5029542;28;20519;-75
2021/05/20 09:27:32;;;;;;;1.52;0.90;;;19.10;80.60;;;;;;5029244;28;20017;-75
2021/05/20 09:30:19;;;;;;;1.38;0.98;;;19.00;78.70;;;;;;5029307;28;20387;-75
2021/05/20 09:32:54;;;;;;;2.35;1.00;;;19.20;76.10;;;;;;5029587;28;20390;-75
2021/05/20 09:35:29;;;;;;;1.63;0.77;;;19.20;76.20;;;;;;5029660;28;20030;-75
2021/05/20 09:38:00;;;;;;;1.23;0.70;;;19.40;71.40;;;;;;5032224;28;20021;-75
2021/05/20 09:40:29;;;;;;;1.73;0.50;;;19.70;71.30;;;;;;5033239;28;20026;-75
2021/05/20 09:42:55;;;;;;;1.73;0.75;;;20.20;63.40;;;;;;5015521;28;20108;-76
2021/05/20 09:45:26;;;;;;;0.52;0.50;;;20.20;63.70;;;;;;5033092;28;20040;-76
2021/05/20 09:48:02;;;;;;;1.10;0.80;;;21.70;60.80;;;;;;5034080;28;20376;-76
2021/05/20 09:50:27;;;;;;;0.90;0.60;;;25.00;49.00;;;;;;5033938;28;20383;-75
2021/05/20 09:53:01;;;;;;;0.88;0.38;;;24.40;47.90;;;;;;5033247;28;20025;-75
2021/05/20 09:55:28;;;;;;;1.23;0.63;;;22.90;52.30;;;;;;5033251;28;20033;-75
2021/05/20 09:57:56;;;;;;;2.45;1.23;;;22.00;52.60;;;;;;5032939;28;20018;-76
2021/05/20 10:00:25;;;;;;;2.22;0.77;;;21.70;53.80;;;;;;5032859;28;20025;-75
2021/05/20 10:03:07;;;;;;;1.42;0.80;;;21.80;53.90;;;;;;5032791;28;20029;-75
2021/05/20 10:05:38;;;;;;;1.23;0.68;;;21.20;57.50;;;;;;5033068;28;20029;-76
2021/05/20 10:08:16;;;;;;;0.85;0.65;;;20.30;59.70;;;;;;5033032;28;20017;-76
2021/05/20 10:10:44;;;;;;;0.77;0.52;;;19.90;61.80;;;;;;5039128;23;20539;-74
2021/05/20 10:13:30;;;;;;;1.98;0.38;;;19.30;62.30;;;;;;5015111;28;20513;-74
2021/05/20 10:15:57;;;;;;;2.00;0.90;;;19.10;64.70;;;;;;5014671;28;20037;-74
2021/05/20 10:18:26;;;;;;;0.85;0.63;;;19.10;65.50;;;;;;5032647;28;20057;-75
2021/05/20 10:21:00;;;;;;;1.88;0.70;;;19.10;65.00;;;;;;5032512;28;20018;-74
2021/05/20 10:23:26;;;;;;;1.83;0.70;;;19.30;65.00;;;;;;5014827;28;20116;-75
2021/05/20 10:25:54;;;;;;;2.83;0.88;;;18.90;66.30;;;;;;5032455;28;20117;-75
2021/05/20 10:28:21;;;;;;;1.17;0.80;;;18.40;66.70;;;;;;5032409;28;20032;-75
2021/05/20 10:30:49;;;;;;;1.83;0.88;;;17.60;69.40;;;;;;5014607;28;20040;-74
2021/05/20 10:33:16;;;;;;;0.88;0.60;;;17.10;71.30;;;;;;5032642;28;20029;-74
2021/05/20 10:35:49;;;;;;;1.85;0.90;;;16.30;73.20;;;;;;5032427;28;20022;-74
2021/05/20 10:38:34;;;;;;;2.88;0.98;;;15.60;77.80;;;;;;5032511;28;20018;-74
2021/05/20 10:41:25;;;;;;;0.93;0.70;;;15.10;78.40;;;;;;5032161;28;20025;-74
2021/05/20 10:44:08;;;;;;;2.00;0.70;;;14.70;84.50;;;;;;5014545;28;20029;-73
2021/05/20 10:47:00;;;;;;;1.63;0.90;;;14.40;93.70;;;;;;5032388;28;20028;-73
2021/05/20 10:49:52;;;;;;;0.90;0.60;;;14.30;97.20;;;;;;5031283;28;20372;-74
2021/05/20 10:52:37;;;;;;;1.20;0.57;;;15.30;99.90;;;;;;5014273;28;20034;-74
2021/05/20 10:55:11;;;;;;;1.02;0.50;;;19.60;78.60;;;;;;5033138;28;20415;-75
2021/05/20 10:57:52;;;;;;;1.00;0.63;;;23.90;55.00;;;;;;5014183;28;20108;-75
2021/05/20 11:00:36;;;;;;;1.27;0.50;;;27.30;44.00;;;;;;5013971;28;20529;-75
2021/05/20 11:03:03;;;;;;;1.25;0.82;;;30.20;38.30;;;;;;5014068;28;20048;-76
2021/05/20 11:05:41;;;;;;;0.88;0.63;;;32.00;34.70;;;;;;5013949;28;20030;-76
2021/05/20 11:08:25;;;;;;;4.85;0.63;;;34.20;31.70;;;;;;5013927;28;20033;-74
2021/05/20 11:10:51;;;;;;;0.98;0.55;;;35.10;29.30;;;;;;5031363;28;20041;-73
2021/05/20 11:13:38;;;;;;;1.25;0.52;;;36.00;28.00;;;;;;5014058;28;20032;-74
2021/05/20 11:16:34;;;;;;;1.77;0.90;;;37.20;26.20;;;;;;5031415;28;20104;-76
2021/05/20 11:19:25;;;;;;;0.85;0.50;;;34.40;28.30;;;;;;5013832;28;20433;-75
2021/05/20 11:22:03;;;;;;;0.88;0.50;;;30.20;32.00;;;;;;5013720;28;20057;-75
2021/05/20 11:24:31;;;;;;;1.02;0.93;;;26.90;37.30;;;;;;5031406;28;20367;-75
2021/05/20 11:26:58;;;;;;;1.33;0.90;;;24.00;42.20;;;;;;5031392;28;20032;-75
2021/05/20 11:29:25;;;;;;;0.80;0.80;;;22.20;48.00;;;;;;5013566;28;20060;-75
2021/05/20 11:31:59;;;;;;;1.00;0.90;;;21.10;50.90;;;;;;5031231;28;20039;-74
2021/05/20 11:37:06;;;;;;;1.55;1.00;;;20.20;53.30;;;;;;5031266;28;20112;-75
2021/05/20 11:39:31;;;;;;;2.08;0.90;;;20.90;52.90;;;;;;5031110;28;20461;-75
2021/05/20 11:41:59;;;;;;;2.05;0.82;;;21.30;52.00;;;;;;5013280;28;20092;-74
2021/05/20 11:44:26;;;;;;;2.72;1.10;;;20.70;53.80;;;;;;5031028;28;20025;-75
2021/05/20 11:47:03;;;;;;;1.77;0.70;;;20.40;55.20;;;;;;5031014;28;20096;-75
2021/05/20 11:49:29;;;;;;;1.40;0.50;;;19.60;55.50;;;;;;5013195;28;20047;-75
2021/05/20 11:52:02;;;;;;;0.40;0.40;;;19.80;52.90;;;;;;5031031;28;20029;-74
2021/05/20 11:54:36;;;;;;;0.63;0.40;;;21.00;50.50;;;;;;5030819;28;20438;-75
2021/05/20 11:57:05;;;;;;;1.42;0.80;;;21.20;48.70;;;;;;5013238;28;20506;-74
2021/05/20 11:59:34;;;;;;;0.70;0.70;;;21.50;50.10;;;;;;5030662;28;20060;-75
2021/05/20 12:02:01;;;;;;;1.17;0.52;;;22.40;49.40;;;;;;5030621;28;20032;-75
2021/05/20 12:04:27;;;;;;;0.82;0.50;;;22.90;47.10;;;;;;5030964;28;20029;-75
2021/05/20 12:06:54;;;;;;;2.13;0.65;;;22.90;45.70;;;;;;5030968;28;20132;-76
2021/05/20 12:09:19;;;;;;;1.95;0.70;;;24.10;44.40;;;;;;5030561;28;20470;-76
2021/05/20 12:11:46;;;;;;;0.90;0.45;;;26.60;40.50;;;;;;5012836;28;20038;-75
2021/05/20 12:14:38;;;;;;;0.47;0.47;;;28.30;37.60;;;;;;5012970;28;20391;-75
2021/05/20 12:17:08;;;;;;;0.60;0.60;;;26.60;37.70;;;;;;5028956;28;20107;-75
2021/05/20 12:19:54;;;;;;;1.83;0.60;;;24.60;42.50;;;;;;5031417;28;20341;-75
2021/05/20 12:22:24;;;;;;;0.38;0.32;;;23.20;46.60;;;;;;5030592;28;20585;-76
2021/05/20 12:24:52;;;;;;;1.40;0.57;;;24.70;45.20;;;;;;5030264;28;20017;-75
2021/05/20 12:27:29;;;;;;;0.80;0.40;;;25.60;42.50;;;;;;5012544;28;20478;-75
2021/05/20 12:29:59;;;;;;;0.40;0.32;;;24.10;44.00;;;;;;5030086;28;20394;-73
2021/05/20 12:32:35;;;;;;;1.70;0.40;;;22.80;47.00;;;;;;5012514;28;20040;-74
2021/05/20 12:35:36;;;;;;;0.40;0.40;;;21.70;48.20;;;;;;5030055;28;20514;-74
2021/05/20 12:38:05;;;;;;;1.17;0.47;;;21.20;48.60;;;;;;5008251;28;20060;-74
2021/05/20 12:40:44;;;;;;;0.50;0.40;;;20.70;50.50;;;;;;5029885;28;20395;-74
2021/05/20 12:43:34;;;;;;;1.17;0.52;;;20.00;51.60;;;;;;5012289;28;20513;-74
2021/05/20 12:46:05;;;;;;;1.40;0.30;;;19.60;53.50;;;;;;5024986;28;20033;-74
2021/05/20 12:48:40;;;;;;;0.57;0.40;;;19.50;54.00;;;;;;5030130;28;20032;-74
2021/05/20 12:51:19;;;;;;;0.30;0.30;;;19.50;54.60;;;;;;5012495;28;20120;-74
2021/05/20 12:53:56;;;;;;;0.88;0.52;;;19.60;54.00;;;;;;5012132;28;20032;-74
2021/05/20 12:56:22;;;;;;;0.65;0.50;;;19.80;54.10;;;;;;5029966;28;20029;-74
2021/05/20 12:58:48;;;;;;;0.40;0.40;;;19.90;54.00;;;;;;5029642;28;20053;-74
2021/05/20 13:01:14;;;;;;;0.40;0.40;;;19.80;53.30;;;;;;5029635;28;20441;-74
2021/05/20 13:03:43;;;;;;;2.25;0.88;;;19.60;52.30;;;;;;5029652;28;20021;-73
2021/05/20 13:06:09;;;;;;;0.57;0.43;;;19.60;52.80;;;;;;5011931;28;20033;-74
2021/05/20 13:08:39;;;;;;;5.00;0.40;;;21.00;52.00;;;;;;5029638;28;20044;-73
2021/05/20 13:11:33;;;;;;;3.03;0.68;;;23.70;46.60;;;;;;5029145;28;20046;-73
2021/05/20 13:14:36;;;;;;;1.17;0.55;;;25.10;41.80;;;;;;5029890;28;20059;-74